createdAt,value
2022-07-31T00:00:15.222Z,99610.34
2022-07-31T00:03:04.098Z,99612.25
2022-07-31T00:05:51.369Z,99607.22
2022-07-31T00:08:38.639Z,99610.13
2022-07-31T00:11:25.753Z,99609.28
2022-07-31T00:14:12.972Z,99605.88
2022-07-31T00:17:00.582Z,99610.13
2022-07-31T00:19:49.537Z,99611.88
2022-07-31T00:22:37.059Z,99616.09
2022-07-31T00:25:24.688Z,99610.13
2022-07-31T00:28:12.041Z,99605.75
2022-07-31T00:30:59.384Z,99610.91
2022-07-31T00:33:46.844Z,99607.53
2022-07-31T00:36:35.377Z,99603.81
2022-07-31T00:39:24.184Z,99598.75
2022-07-31T00:42:18.933Z,99594.56
2022-07-31T00:45:07.886Z,99596.31
2022-07-31T00:47:55.866Z,99597.28
2022-07-31T00:50:43.442Z,99588.69
2022-07-31T00:53:32.066Z,99583.69
2022-07-31T00:56:19.459Z,99584.47
2022-07-31T00:59:07.119Z,99583.69
2022-07-31T01:01:54.673Z,99579.13
2022-07-31T01:04:41.929Z,99575.75
2022-07-31T01:07:32.005Z,99586.13
2022-07-31T01:10:30.868Z,99580.13
2022-07-31T01:13:29.040Z,99577.81
2022-07-31T01:16:18.278Z,99584.78
2022-07-31T01:19:17.016Z,99584.94
2022-07-31T01:22:34.684Z,99588.66
2022-07-31T01:25:40.152Z,99581.81
2022-07-31T01:29:15.308Z,99579.69
2022-07-31T01:32:07.573Z,99584.03
2022-07-31T01:35:02.468Z,99591.03
2022-07-31T01:37:56.448Z,99584.16
2022-07-31T01:40:47.878Z,99577.38
2022-07-31T01:43:40.541Z,99576.72
2022-07-31T01:46:31.901Z,99574.13
2022-07-31T01:49:30.083Z,99573.47
2022-07-31T01:52:18.250Z,99570.72
2022-07-31T01:55:07.386Z,99577.66
2022-07-31T01:57:57.891Z,99576.72
2022-07-31T02:00:46.556Z,99565.69
2022-07-31T02:03:43.693Z,99570.72
2022-07-31T02:06:35.733Z,99573.47
2022-07-31T02:09:25.241Z,99564.72
2022-07-31T02:12:14.382Z,99572.31
2022-07-31T02:15:03.509Z,99572.47
2022-07-31T02:17:53.074Z,99576.72
2022-07-31T02:20:47.456Z,99573.47
2022-07-31T02:23:35.683Z,99569.88
2022-07-31T02:26:28.079Z,99559.69
2022-07-31T02:29:19.778Z,99563.09
2022-07-31T02:32:09.719Z,99565.16
2022-07-31T02:34:58.484Z,99560.13
2022-07-31T02:37:52.881Z,99563.69
2022-07-31T02:40:42.323Z,99558.13
2022-07-31T02:43:32.724Z,99553.13
2022-07-31T02:46:25.890Z,99554.22
2022-07-31T02:49:14.963Z,99551.78
2022-07-31T02:52:02.834Z,99549.34
2022-07-31T02:54:52.903Z,99546.91
2022-07-31T02:57:39.944Z,99546.22
2022-07-31T03:00:31.925Z,99549.81
2022-07-31T03:03:19.637Z,99543.00
2022-07-31T03:06:07.500Z,99543.94
2022-07-31T03:08:55.224Z,99553.50
2022-07-31T03:11:46.232Z,99549.28
2022-07-31T03:14:35.474Z,99546.69
2022-07-31T03:17:23.672Z,99550.25
2022-07-31T03:20:26.034Z,99560.75
2022-07-31T03:23:14.927Z,99546.16
2022-07-31T03:26:25.064Z,99548.91
2022-07-31T03:29:39.316Z,99542.94
2022-07-31T03:32:20.718Z,99548.38
2022-07-31T03:35:09.436Z,99546.78
2022-07-31T03:37:57.266Z,99543.50
2022-07-31T03:40:44.952Z,99543.50
2022-07-31T03:43:44.357Z,99536.56
2022-07-31T03:46:36.945Z,99539.16
2022-07-31T03:49:25.382Z,99539.00
2022-07-31T03:52:13.072Z,99542.41
2022-07-31T03:55:00.762Z,99550.16
2022-07-31T03:57:49.032Z,99540.75
2022-07-31T04:00:37.380Z,99550.31
2022-07-31T04:03:32.546Z,99558.88
2022-07-31T04:06:37.839Z,99558.09
2022-07-31T04:09:24.994Z,99555.66
2022-07-31T04:12:12.488Z,99557.41
2022-07-31T04:15:00.573Z,99562.59
2022-07-31T04:17:47.864Z,99567.13
2022-07-31T04:20:40.653Z,99569.03
2022-07-31T04:23:32.286Z,99570.00
2022-07-31T04:26:51.067Z,99569.31
2022-07-31T04:29:38.795Z,99559.91
2022-07-31T04:32:26.206Z,99564.00
2022-07-31T04:35:15.827Z,99567.41
2022-07-31T04:38:04.709Z,99565.63
2022-07-31T04:40:56.134Z,99563.69
2022-07-31T04:43:43.391Z,99577.31
2022-07-31T04:46:30.994Z,99571.34
2022-07-31T04:49:18.948Z,99566.00
2022-07-31T04:52:07.407Z,99559.88
2022-07-31T04:54:56.856Z,99570.06
2022-07-31T04:57:45.179Z,99572.66
2022-07-31T05:00:32.459Z,99573.47
2022-07-31T05:03:20.238Z,99569.94
2022-07-31T05:06:11.991Z,99567.34
2022-07-31T05:08:59.484Z,99569.09
2022-07-31T05:11:52.623Z,99569.94
2022-07-31T05:14:40.001Z,99566.38
2022-07-31T05:17:27.453Z,99568.00
2022-07-31T05:20:33.447Z,99570.72
2022-07-31T05:23:32.866Z,99570.72
2022-07-31T05:26:38.765Z,99569.94
2022-07-31T05:29:27.991Z,99573.16
2022-07-31T05:32:15.827Z,99571.25
2022-07-31T05:35:03.349Z,99570.44
2022-07-31T05:37:50.470Z,99573.84
2022-07-31T05:40:40.313Z,99573.00
2022-07-31T05:43:46.823Z,99575.59
2022-07-31T05:46:41.359Z,99575.59
2022-07-31T05:49:29.107Z,99572.06
2022-07-31T05:52:20.175Z,99571.09
2022-07-31T05:55:17.590Z,99577.09
2022-07-31T05:58:26.390Z,99567.41
2022-07-31T06:01:14.175Z,99557.69
2022-07-31T06:04:03.995Z,99573.13
2022-07-31T06:06:56.563Z,99573.13
2022-07-31T06:09:45.033Z,99560.81
2022-07-31T06:12:36.578Z,99559.84
2022-07-31T06:15:24.819Z,99558.06
2022-07-31T06:18:11.995Z,99556.31
2022-07-31T06:21:00.784Z,99566.53
2022-07-31T06:23:48.325Z,99567.16
2022-07-31T06:26:59.078Z,99573.97
2022-07-31T06:29:47.272Z,99564.28
2022-07-31T06:32:35.026Z,99572.72
2022-07-31T06:35:22.392Z,99572.41
2022-07-31T06:38:37.145Z,99574.84
2022-07-31T06:41:48.307Z,99579.09
2022-07-31T06:44:51.222Z,99579.75
2022-07-31T06:47:57.691Z,99572.63
2022-07-31T06:51:14.640Z,99581.88
2022-07-31T06:54:11.088Z,99581.09
2022-07-31T06:56:59.332Z,99584.31
2022-07-31T06:59:46.742Z,99585.03
2022-07-31T07:02:34.516Z,99595.25
2022-07-31T07:05:22.045Z,99583.78
2022-07-31T07:08:12.680Z,99581.03
2022-07-31T07:11:03.180Z,99585.25
2022-07-31T07:13:55.410Z,99586.06
2022-07-31T07:16:42.801Z,99586.72
2022-07-31T07:19:30.159Z,99584.00
2022-07-31T07:22:17.780Z,99574.28
2022-07-31T07:25:20.521Z,99578.50
2022-07-31T07:28:15.192Z,99577.38
2022-07-31T07:31:19.247Z,99580.63
2022-07-31T07:34:09.215Z,99569.13
2022-07-31T07:36:56.957Z,99566.25
2022-07-31T07:39:48.262Z,99572.09
2022-07-31T07:42:35.581Z,99567.59
2022-07-31T07:45:25.487Z,99566.31
2022-07-31T07:48:12.904Z,99562.72
2022-07-31T07:51:21.827Z,99559.84
2022-07-31T07:54:17.336Z,99564.06
2022-07-31T07:57:28.189Z,99556.16
2022-07-31T08:00:17.319Z,99551.44
2022-07-31T08:03:50.378Z,99551.13
2022-07-31T08:06:14.367Z,99555.34
2022-07-31T08:09:01.658Z,99554.91
2022-07-31T08:12:08.053Z,99549.41
2022-07-31T08:15:18.732Z,99552.53
2022-07-31T08:18:27.259Z,99542.78
2022-07-31T08:21:16.117Z,99545.91
2022-07-31T08:24:03.909Z,99538.59
2022-07-31T08:27:08.722Z,99534.88
2022-07-31T08:30:01.316Z,99537.22
2022-07-31T08:32:50.260Z,99530.88
2022-07-31T08:35:54.720Z,99529.75
2022-07-31T08:38:42.176Z,99528.63
2022-07-31T08:41:48.122Z,99526.72
2022-07-31T08:44:37.856Z,99535.81
2022-07-31T08:47:28.169Z,99524.31
2022-07-31T08:50:20.114Z,99515.41
2022-07-31T08:53:09.969Z,99524.50
2022-07-31T08:56:10.631Z,99519.94
2022-07-31T08:58:58.170Z,99519.50
2022-07-31T09:01:45.864Z,99518.22
2022-07-31T09:04:33.529Z,99514.44
2022-07-31T09:07:21.067Z,99509.94
2022-07-31T09:10:23.076Z,99505.38
2022-07-31T09:13:15.899Z,99508.63
2022-07-31T09:16:03.706Z,99514.34
2022-07-31T09:18:57.969Z,99511.59
2022-07-31T09:21:47.133Z,99510.63
2022-07-31T09:24:36.969Z,99506.84
2022-07-31T09:27:31.096Z,99503.31
2022-07-31T09:30:18.212Z,99499.56
2022-07-31T09:33:19.355Z,99498.63
2022-07-31T09:36:32.978Z,99501.22
2022-07-31T09:39:31.777Z,99491.47
2022-07-31T09:43:03.337Z,99495.69
2022-07-31T09:45:59.025Z,99494.72
2022-07-31T09:48:52.585Z,99484.00
2022-07-31T09:51:49.152Z,99478.66
2022-07-31T09:54:39.802Z,99488.56
2022-07-31T09:57:35.659Z,99489.91
2022-07-31T10:00:27.177Z,99480.16
2022-07-31T10:03:17.585Z,99478.69
2022-07-31T10:06:09.598Z,99469.75
2022-07-31T10:09:00.319Z,99477.25
2022-07-31T10:12:16.495Z,99475.28
2022-07-31T10:15:12.055Z,99471.72
2022-07-31T10:18:03.320Z,99474.97
2022-07-31T10:20:58.335Z,99469.75
2022-07-31T10:24:12.323Z,99469.59
2022-07-31T10:27:07.598Z,99469.47
2022-07-31T10:29:59.805Z,99460.53
2022-07-31T10:32:47.537Z,99457.59
2022-07-31T10:36:05.328Z,99456.47
2022-07-31T10:39:19.829Z,99443.28
2022-07-31T10:42:30.069Z,99445.72
2022-07-31T10:45:17.604Z,99435.97
2022-07-31T10:48:22.984Z,99431.44
2022-07-31T10:51:49.763Z,99441.81
2022-07-31T10:54:58.279Z,99436.47
2022-07-31T10:58:12.242Z,99433.53
2022-07-31T11:01:12.238Z,99423.78
2022-07-31T11:04:28.527Z,99413.06
2022-07-31T11:07:47.646Z,99412.88
2022-07-31T11:10:54.598Z,99413.53
2022-07-31T11:14:04.158Z,99409.31
2022-07-31T11:17:00.460Z,99402.31
2022-07-31T11:20:04.003Z,99403.16
2022-07-31T11:23:04.473Z,99396.16
2022-07-31T11:25:51.959Z,99386.59
2022-07-31T11:28:39.231Z,99394.22
2022-07-31T11:31:31.161Z,99380.38
2022-07-31T11:34:18.218Z,99388.19
2022-07-31T11:37:05.771Z,99387.22
2022-07-31T11:39:57.215Z,99386.88
2022-07-31T11:42:47.076Z,99382.34
2022-07-31T11:45:48.691Z,99384.59
2022-07-31T11:48:44.944Z,99373.22
2022-07-31T11:51:33.041Z,99381.81
2022-07-31T11:54:26.777Z,99360.84
2022-07-31T11:57:15.223Z,99356.47
2022-07-31T12:00:26.106Z,99357.13
2022-07-31T12:03:18.777Z,99346.09
2022-07-31T12:06:07.484Z,99343.34
2022-07-31T12:08:54.739Z,99330.66
2022-07-31T12:11:42.107Z,99337.75
2022-07-31T12:14:33.948Z,99341.47
2022-07-31T12:17:23.736Z,99334.97
2022-07-31T12:20:12.729Z,99330.41
2022-07-31T12:23:00.815Z,99331.03
2022-07-31T12:25:48.267Z,99332.47
2022-07-31T12:28:35.613Z,99320.75
2022-07-31T12:31:24.319Z,99328.22
2022-07-31T12:34:11.750Z,99317.47
2022-07-31T12:37:02.018Z,99312.09
2022-07-31T12:40:00.763Z,99305.91
2022-07-31T12:42:49.306Z,99302.34
2022-07-31T12:45:38.377Z,99300.19
2022-07-31T12:48:33.756Z,99291.41
2022-07-31T12:51:45.701Z,99294.97
2022-07-31T12:54:31.389Z,99287.34
2022-07-31T12:57:18.753Z,99290.78
2022-07-31T13:00:07.926Z,99275.97
2022-07-31T13:02:59.561Z,99281.19
2022-07-31T13:05:52.009Z,99274.16
2022-07-31T13:08:39.657Z,99273.19
2022-07-31T13:11:28.978Z,99268.66
2022-07-31T13:14:16.421Z,99270.25
2022-07-31T13:17:04.178Z,99266.03
2022-07-31T13:19:51.584Z,99264.25
2022-07-31T13:22:40.426Z,99258.25
2022-07-31T13:25:30.324Z,99247.84
2022-07-31T13:28:17.598Z,99250.44
2022-07-31T13:31:04.921Z,99251.72
2022-07-31T13:33:52.052Z,99242.75
2022-07-31T13:36:40.077Z,99233.13
2022-07-31T13:39:28.901Z,99229.56
2022-07-31T13:42:16.529Z,99221.56
2022-07-31T13:45:08.667Z,99217.16
2022-07-31T13:47:59.945Z,99214.56
2022-07-31T13:50:48.124Z,99211.00
2022-07-31T13:53:36.194Z,99208.38
2022-07-31T13:56:39.564Z,99198.59
2022-07-31T13:59:33.105Z,99201.19
2022-07-31T14:02:20.889Z,99195.84
2022-07-31T14:05:09.277Z,99196.47
2022-07-31T14:08:29.899Z,99192.06
2022-07-31T14:11:13.845Z,99192.88
2022-07-31T14:14:04.134Z,99190.13
2022-07-31T14:16:51.483Z,99181.50
2022-07-31T14:19:43.851Z,99176.44
2022-07-31T14:22:32.663Z,99168.63
2022-07-31T14:25:19.995Z,99180.66
2022-07-31T14:28:11.927Z,99172.88
2022-07-31T14:31:00.440Z,99170.94
2022-07-31T14:33:49.559Z,99175.78
2022-07-31T14:36:36.841Z,99164.41
2022-07-31T14:39:24.045Z,99170.22
2022-07-31T14:42:12.236Z,99164.03
2022-07-31T14:44:59.996Z,99163.84
2022-07-31T14:47:50.222Z,99164.69
2022-07-31T14:50:43.010Z,99165.66
2022-07-31T14:53:30.425Z,99169.06
2022-07-31T14:56:30.715Z,99165.66
2022-07-31T14:59:25.238Z,99162.22
2022-07-31T15:02:12.932Z,99162.22
2022-07-31T15:06:39.799Z,99160.63
2022-07-31T15:08:08.597Z,99157.19
2022-07-31T15:10:55.916Z,99156.22
2022-07-31T15:13:44.016Z,99157.03
2022-07-31T15:16:31.384Z,99158.63
2022-07-31T15:19:18.456Z,99149.84
2022-07-31T15:22:15.779Z,99153.25
2022-07-31T15:25:04.895Z,99149.06
2022-07-31T15:27:52.272Z,99148.06
2022-07-31T15:30:39.756Z,99149.69
2022-07-31T15:33:28.522Z,99153.06
2022-07-31T15:36:15.696Z,99143.50
2022-07-31T15:39:04.698Z,99148.69
2022-07-31T15:41:52.995Z,99145.72
2022-07-31T15:44:40.272Z,99139.53
2022-07-31T15:47:27.801Z,99144.38
2022-07-31T15:50:18.829Z,99126.81
2022-07-31T15:53:06.205Z,99128.41
2022-07-31T15:55:54.881Z,99130.03
2022-07-31T15:58:42.058Z,99125.66
2022-07-31T16:01:29.293Z,99117.66
2022-07-31T16:04:17.073Z,99122.69
2022-07-31T16:08:27.306Z,99123.28
2022-07-31T16:10:17.714Z,99114.50
2022-07-31T16:13:07.589Z,99110.53
2022-07-31T16:15:54.771Z,99097.72
2022-07-31T16:18:41.818Z,99107.13
2022-07-31T16:21:29.080Z,99103.56
2022-07-31T16:24:16.941Z,99109.38
2022-07-31T16:27:08.107Z,99097.00
2022-07-31T16:29:59.723Z,99097.59
2022-07-31T16:32:50.032Z,99101.66
2022-07-31T16:35:37.393Z,99098.84
2022-07-31T16:38:25.531Z,99090.69
2022-07-31T16:41:13.344Z,99095.88
2022-07-31T16:44:01.016Z,99093.28
2022-07-31T16:46:55.076Z,99099.94
2022-07-31T16:49:44.990Z,99094.72
2022-07-31T16:52:35.679Z,99098.94
2022-07-31T16:55:51.695Z,99097.13
2022-07-31T16:58:37.141Z,99094.91
2022-07-31T17:01:53.791Z,99093.91
2022-07-31T17:04:35.047Z,99100.09
2022-07-31T17:07:25.729Z,99104.53
2022-07-31T17:10:15.955Z,99103.69
2022-07-31T17:13:03.821Z,99102.72
2022-07-31T17:15:51.812Z,99100.09
2022-07-31T17:18:39.598Z,99101.72
2022-07-31T17:21:30.987Z,99094.91
2022-07-31T17:24:19.040Z,99094.91
2022-07-31T17:27:10.985Z,99096.72
2022-07-31T17:29:59.035Z,99102.09
2022-07-31T17:32:47.071Z,99094.28
2022-07-31T17:35:35.374Z,99096.91
2022-07-31T17:38:24.027Z,99100.28
2022-07-31T17:41:24.849Z,99099.31
2022-07-31T17:44:14.557Z,99099.50
2022-07-31T17:47:03.770Z,99102.09
2022-07-31T17:49:52.617Z,99104.88
2022-07-31T17:52:39.861Z,99100.66
2022-07-31T17:55:28.782Z,99108.03
2022-07-31T17:58:16.293Z,99106.41
2022-07-31T18:01:03.766Z,99104.81
2022-07-31T18:03:51.117Z,99113.59
2022-07-31T18:06:38.491Z,99114.59
2022-07-31T18:09:26.199Z,99124.19
2022-07-31T18:12:15.832Z,99119.19
2022-07-31T18:15:03.502Z,99122.94
2022-07-31T18:17:51.185Z,99123.75
2022-07-31T18:20:39.043Z,99130.91
2022-07-31T18:23:29.463Z,99142.16
2022-07-31T18:26:19.657Z,99141.50
2022-07-31T18:29:08.288Z,99141.69
2022-07-31T18:31:55.949Z,99145.28
2022-07-31T18:34:43.423Z,99143.88
2022-07-31T18:37:32.532Z,99147.63
2022-07-31T18:40:19.710Z,99151.41
2022-07-31T18:43:07.316Z,99159.38
2022-07-31T18:45:56.267Z,99158.75
2022-07-31T18:48:43.724Z,99159.72
2022-07-31T18:51:31.713Z,99161.72
2022-07-31T18:54:20.049Z,99156.88
2022-07-31T18:57:07.871Z,99163.84
2022-07-31T18:59:54.906Z,99158.81
2022-07-31T19:02:43.462Z,99161.59
2022-07-31T19:05:30.991Z,99162.41
2022-07-31T19:08:18.248Z,99173.81
2022-07-31T19:11:05.618Z,99166.16
2022-07-31T19:13:52.883Z,99172.38
2022-07-31T19:16:40.346Z,99173.34
2022-07-31T19:19:53.523Z,99177.91
2022-07-31T19:22:39.582Z,99179.72
2022-07-31T19:25:26.959Z,99185.25
2022-07-31T19:28:15.155Z,99180.22
2022-07-31T19:31:02.629Z,99185.25
2022-07-31T19:33:50.189Z,99186.41
2022-07-31T19:36:39.453Z,99189.81
2022-07-31T19:39:26.840Z,99195.19
2022-07-31T19:42:14.220Z,99193.56
2022-07-31T19:45:01.516Z,99196.19
2022-07-31T19:47:48.877Z,99197.19
2022-07-31T19:50:36.329Z,99194.72
2022-07-31T19:53:25.502Z,99195.75
2022-07-31T19:56:20.202Z,99199.94
2022-07-31T19:59:07.931Z,99202.72
2022-07-31T20:01:56.763Z,99207.91
2022-07-31T20:04:44.108Z,99213.31
2022-07-31T20:07:33.119Z,99211.53
2022-07-31T20:10:22.876Z,99217.72
2022-07-31T20:13:10.198Z,99224.69
2022-07-31T20:15:57.774Z,99224.84
2022-07-31T20:18:47.167Z,99232.66
2022-07-31T20:21:35.201Z,99227.66
2022-07-31T20:24:24.689Z,99226.19
2022-07-31T20:27:13.635Z,99228.97
2022-07-31T20:30:00.981Z,99226.56
2022-07-31T20:32:49.509Z,99224.13
2022-07-31T20:35:48.091Z,99227.88
2022-07-31T20:38:37.059Z,99231.63
2022-07-31T20:41:24.390Z,99226.78
2022-07-31T20:44:13.016Z,99236.38
2022-07-31T20:47:00.550Z,99230.56
2022-07-31T20:49:47.817Z,99235.09
2022-07-31T20:52:35.056Z,99230.91
2022-07-31T20:55:22.601Z,99232.69
2022-07-31T20:58:09.827Z,99233.81
2022-07-31T21:00:58.462Z,99239.03
2022-07-31T21:03:45.902Z,99228.81
2022-07-31T21:06:33.089Z,99234.00
2022-07-31T21:09:20.261Z,99238.59
2022-07-31T21:12:08.729Z,99239.56
2022-07-31T21:14:56.155Z,99235.50
2022-07-31T21:17:44.768Z,99237.31
2022-07-31T21:20:50.262Z,99237.63
2022-07-31T21:23:38.918Z,99238.78
2022-07-31T21:26:28.385Z,99245.97
2022-07-31T21:29:16.202Z,99245.31
2022-07-31T21:32:06.073Z,99253.47
2022-07-31T21:34:56.080Z,99252.97
2022-07-31T21:37:44.348Z,99259.31
2022-07-31T21:40:36.065Z,99255.28
2022-07-31T21:43:24.594Z,99252.03
2022-07-31T21:46:17.711Z,99254.00
2022-07-31T21:49:05.404Z,99262.94
2022-07-31T21:51:55.114Z,99271.88
2022-07-31T21:54:42.283Z,99269.47
2022-07-31T21:57:29.304Z,99274.97
2022-07-31T22:00:36.878Z,99271.09
2022-07-31T22:03:25.427Z,99280.69
2022-07-31T22:06:30.336Z,99287.03
2022-07-31T22:09:23.091Z,99285.41
2022-07-31T22:12:10.882Z,99289.19
2022-07-31T22:14:58.063Z,99292.75
2022-07-31T22:17:46.899Z,99290.47
2022-07-31T22:20:35.189Z,99295.66
2022-07-31T22:23:23.093Z,99295.84
2022-07-31T22:26:12.664Z,99299.44
2022-07-31T22:29:00.464Z,99296.97
2022-07-31T22:31:49.924Z,99304.13
2022-07-31T22:34:41.540Z,99297.31
2022-07-31T22:37:29.818Z,99299.28
2022-07-31T22:40:19.612Z,99300.25
2022-07-31T22:44:11.214Z,99300.44
2022-07-31T22:46:16.436Z,99311.97
2022-07-31T22:49:04.328Z,99305.31
2022-07-31T22:51:51.670Z,99307.25
2022-07-31T22:54:38.938Z,99323.84
2022-07-31T22:57:26.370Z,99312.63
2022-07-31T23:00:18.296Z,99310.19
2022-07-31T23:03:05.723Z,99318.94
2022-07-31T23:06:02.626Z,99326.91
2022-07-31T23:09:00.492Z,99328.03
2022-07-31T23:11:47.939Z,99328.03
2022-07-31T23:14:35.103Z,99340.41
2022-07-31T23:17:23.995Z,99332.63
2022-07-31T23:20:11.888Z,99344.13
2022-07-31T23:22:59.403Z,99348.53
2022-07-31T23:25:46.766Z,99338.16
2022-07-31T23:28:33.852Z,99341.06
2022-07-31T23:31:21.962Z,99346.25
2022-07-31T23:34:10.715Z,99343.81
2022-07-31T23:36:58.140Z,99345.59
2022-07-31T23:39:45.659Z,99344.13
2022-07-31T23:42:37.734Z,99345.75
2022-07-31T23:45:25.807Z,99352.06
2022-07-31T23:48:14.944Z,99348.81
2022-07-31T23:51:04.034Z,99342.03
2022-07-31T23:53:51.280Z,99343.16
2022-07-31T23:56:38.523Z,99344.13
2022-07-31T23:59:25.753Z,99344.31
